Time;durP1;ratioP1;P1;durP2;ratioP2;P2;SDS_P1;SDS_P2;PMS_P1;PMS_P2;Temp;Humidity;BMP_temperature;BMP_pressure;BME280_temperature;BME280_humidity;BME280_pressure;Samples;Min_cycle;Max_cycle;Signal;HPM_P1;HPM_P2
2023/07/18 00:01:15;;;;;;;23.98;15.18;;;;;;;24.77;83.57;95385.16;5037918;28;20685;-73
2023/07/18 00:03:41;;;;;;;21.83;15.35;;;;;;;24.92;83.28;95378.91;5018015;28;20228;-72
2023/07/18 00:06:06;;;;;;;21.90;14.82;;;;;;;24.93;82.33;95377.03;5038058;28;20297;-73
2023/07/18 00:08:32;;;;;;;19.98;15.02;;;;;;;25.00;80.55;95375.66;5038745;28;20753;-72
2023/07/18 00:10:57;;;;;;;19.60;14.73;;;;;;;24.96;80.47;95363.09;5022957;28;20656;-72
2023/07/18 00:13:23;;;;;;;19.08;14.40;;;;;;;24.92;80.79;95368.19;5035021;28;20228;-73
2023/07/18 00:15:49;;;;;;;19.90;14.18;;;;;;;24.88;80.20;95372.50;5023248;28;20289;-72
2023/07/18 00:18:14;;;;;;;20.80;14.40;;;;;;;24.58;80.88;95375.31;5055623;28;20236;-73
2023/07/18 00:20:40;;;;;;;19.38;14.40;;;;;;;24.52;81.07;95377.22;5049854;28;20225;-73
2023/07/18 00:23:09;;;;;;;18.65;14.10;;;;;;;24.61;80.84;95370.22;5012321;28;20328;-72
2023/07/18 00:25:35;;;;;;;21.02;14.27;;;;;;;24.55;81.45;95368.63;5016445;28;20620;-73
2023/07/18 00:28:01;;;;;;;20.85;14.20;;;;;;;24.70;80.17;95370.44;5012509;28;20222;-73
2023/07/18 00:30:26;;;;;;;20.23;13.93;;;;;;;24.56;80.91;95374.78;5034379;28;20233;-74
2023/07/18 00:32:52;;;;;;;17.90;13.93;;;;;;;24.49;80.61;95375.09;5037155;28;20335;-72
2023/07/18 00:35:18;;;;;;;19.70;13.88;;;;;;;24.63;78.57;95369.94;5020224;28;20233;-73
2023/07/18 00:37:43;;;;;;;17.90;13.07;;;;;;;24.63;77.62;95369.94;5018971;28;20735;-73
2023/07/18 00:40:11;;;;;;;19.30;12.73;;;;;;;24.67;77.23;95371.00;5032998;28;20313;-72
2023/07/18 00:42:39;;;;;;;20.80;13.00;;;;;;;24.65;76.55;95357.06;5011047;28;20258;-72
2023/07/18 00:45:06;;;;;;;18.60;12.32;;;;;;;24.71;75.74;95364.00;5036654;28;20234;-72
2023/07/18 00:47:40;;;;;;;15.73;12.10;;;;;;;24.29;77.03;95363.69;5015088;28;20229;-72
2023/07/18 00:50:07;;;;;;;16.55;12.20;;;;;;;24.31;77.23;95354.31;5030043;28;20233;-72
2023/07/18 00:52:38;;;;;;;17.63;12.80;;;;;;;24.37;76.22;95344.38;5036853;28;20233;-71
2023/07/18 00:55:04;;;;;;;19.05;12.75;;;;;;;24.44;75.88;95339.50;5053482;28;20237;-73
2023/07/18 00:57:31;;;;;;;18.45;13.05;;;;;;;24.37;76.61;95347.03;5018667;28;20244;-73
2023/07/18 00:59:57;;;;;;;17.48;12.98;;;;;;;24.37;76.33;95339.00;5020074;28;20304;-72
2023/07/18 01:02:22;;;;;;;19.73;12.73;;;;;;;24.41;76.28;95335.50;5021257;28;20865;-72
2023/07/18 01:04:48;;;;;;;15.23;12.63;;;;;;;24.49;76.69;95336.81;5013237;28;20669;-73
2023/07/18 01:07:15;;;;;;;19.60;13.05;;;;;;;24.22;77.19;95339.88;5033411;28;21087;-73
2023/07/18 01:09:41;;;;;;;17.30;12.65;;;;;;;24.21;77.38;95337.50;5032518;28;20336;-72
2023/07/18 01:12:06;;;;;;;16.27;12.25;;;;;;;24.35;76.79;95338.50;5017063;28;20681;-73
2023/07/18 01:14:33;;;;;;;18.90;13.27;;;;;;;24.00;78.63;95348.22;5030546;28;20229;-73
2023/07/18 01:16:58;;;;;;;14.98;12.32;;;;;;;24.28;77.21;95336.13;5032024;28;20247;-72
2023/07/18 01:19:24;;;;;;;16.98;12.45;;;;;;;24.31;76.86;95340.94;5033928;28;20229;-74
2023/07/18 01:21:49;;;;;;;16.67;13.07;;;;;;;24.18;77.91;95343.38;5042968;28;20251;-73
2023/07/18 01:24:14;;;;;;;18.27;13.10;;;;;;;24.05;78.95;95345.53;5052890;28;20255;-73
2023/07/18 01:26:40;;;;;;;19.63;12.98;;;;;;;24.21;78.08;95337.50;5023535;28;20225;-72
2023/07/18 01:29:05;;;;;;;19.63;13.27;;;;;;;24.30;77.91;95350.03;5037922;28;20237;-73
2023/07/18 01:31:32;;;;;;;20.17;13.27;;;;;;;24.20;78.29;95344.72;5017108;28;20279;-73
2023/07/18 01:33:57;;;;;;;20.27;13.32;;;;;;;24.18;78.57;95338.84;5034353;28;20871;-72
2023/07/18 01:36:24;;;;;;;17.33;12.95;;;;;;;24.12;78.93;95341.81;5018404;28;20240;-72
2023/07/18 01:38:50;;;;;;;19.00;13.10;;;;;;;23.92;79.85;95339.97;5016112;28;20257;-72
2023/07/18 01:41:15;;;;;;;16.33;12.50;;;;;;;23.98;79.80;95349.56;5016767;28;20225;-72
2023/07/18 01:43:41;;;;;;;20.25;13.13;;;;;;;24.05;79.52;95352.75;5026400;28;20245;-73
2023/07/18 01:46:06;;;;;;;19.02;13.20;;;;;;;24.05;79.39;95345.53;5009162;28;20968;-72
2023/07/18 01:48:32;;;;;;;17.88;13.50;;;;;;;24.08;79.37;95353.06;5031866;28;20221;-73
2023/07/18 01:50:58;;;;;;;19.38;13.30;;;;;;;23.87;80.37;95351.50;5034964;28;20290;-73
2023/07/18 01:53:26;;;;;;;17.40;13.60;;;;;;;23.82;80.06;95348.00;5013685;28;20233;-74
2023/07/18 01:55:51;;;;;;;19.90;13.75;;;;;;;24.04;79.46;95346.63;5013155;28;20229;-73
2023/07/18 01:58:16;;;;;;;20.50;13.60;;;;;;;23.89;79.64;95345.84;5029395;28;20963;-72
2023/07/18 02:00:42;;;;;;;17.33;13.55;;;;;;;23.88;80.15;95345.06;5041252;28;20237;-81
2023/07/18 02:03:07;;;;;;;19.50;13.27;;;;;;;23.95;80.48;95339.44;5048399;28;20244;-82
2023/07/18 02:05:33;;;;;;;18.45;13.43;;;;;;;23.58;81.15;95342.47;5015538;28;20232;-81
2023/07/18 02:07:59;;;;;;;22.23;13.93;;;;;;;23.39;82.64;95357.44;5055912;28;20236;-82
2023/07/18 02:10:25;;;;;;;18.83;13.48;;;;;;;23.68;81.08;95344.31;5050648;28;20303;-81
2023/07/18 02:12:51;;;;;;;18.85;13.85;;;;;;;23.88;80.41;95347.72;5018308;28;20277;-79
2023/07/18 02:15:17;;;;;;;22.73;13.68;;;;;;;23.90;80.40;95342.94;5029724;28;20241;-74
2023/07/18 02:17:43;;;;;;;21.38;13.70;;;;;;;23.81;80.61;95351.78;5044686;28;20252;-72
2023/07/18 02:20:11;;;;;;;21.15;14.02;;;;;;;23.42;82.73;95348.91;5031837;28;20221;-73
2023/07/18 02:22:38;;;;;;;20.70;14.40;;;;;;;23.66;81.71;95347.25;5029883;28;20240;-74
2023/07/18 02:25:04;;;;;;;19.13;14.05;;;;;;;23.63;81.71;95341.66;5032486;28;20239;-73
2023/07/18 02:27:33;;;;;;;19.63;14.18;;;;;;;23.58;82.16;95347.81;5026895;28;20226;-72
2023/07/18 02:30:01;;;;;;;18.58;14.43;;;;;;;23.71;81.65;95352.59;5011324;28;20234;-73
2023/07/18 02:32:29;;;;;;;23.75;14.48;;;;;;;23.47;82.89;95353.44;5021619;28;20241;-73
2023/07/18 02:34:55;;;;;;;21.80;14.82;;;;;;;23.43;83.53;95361.16;5030957;28;20249;-72
2023/07/18 02:37:20;;;;;;;20.42;14.02;;;;;;;23.38;83.83;95359.31;5011780;28;20225;-72
2023/07/18 02:39:46;;;;;;;20.40;14.55;;;;;;;23.33;84.31;95369.19;5025551;28;20233;-71
2023/07/18 02:42:11;;;;;;;23.10;14.82;;;;;;;23.32;84.43;95360.38;5017184;28;20233;-72
2023/07/18 02:44:37;;;;;;;20.17;15.50;;;;;;;23.55;83.87;95356.34;5033874;28;20235;-73
2023/07/18 02:47:03;;;;;;;21.80;15.10;;;;;;;23.53;83.93;95353.16;5031296;28;20236;-73
2023/07/18 02:49:28;;;;;;;22.95;15.90;;;;;;;23.56;84.20;95349.13;5038894;28;20253;-73
2023/07/18 02:51:54;;;;;;;25.23;15.45;;;;;;;23.41;85.01;95358.78;5032730;28;20242;-73
2023/07/18 02:54:19;;;;;;;23.40;15.60;;;;;;;23.50;84.70;95355.56;5053746;28;20319;-73
2023/07/18 02:56:45;;;;;;;24.55;15.57;;;;;;;23.22;85.91;95362.22;5052805;28;20235;-72
2023/07/18 02:59:10;;;;;;;23.80;15.85;;;;;;;23.16;86.78;95366.78;5032683;28;20314;-72
2023/07/18 03:01:36;;;;;;;20.90;15.57;;;;;;;23.27;86.19;95357.69;5050860;28;20229;-72
2023/07/18 03:04:01;;;;;;;21.67;15.65;;;;;;;23.17;87.07;95362.22;5052232;28;20225;-71
2023/07/18 03:06:27;;;;;;;20.90;15.50;;;;;;;23.22;86.96;95359.56;5025199;28;20361;-73
2023/07/18 03:08:53;;;;;;;20.60;15.68;;;;;;;23.42;86.46;95364.94;5009588;28;20221;-71
2023/07/18 03:11:19;;;;;;;50.58;16.10;;;;;;;23.30;86.13;95361.69;5030507;28;20228;-73
2023/07/18 03:13:44;;;;;;;25.27;15.18;;;;;;;23.47;85.89;95364.94;5032969;28;20698;-72
2023/07/18 03:16:10;;;;;;;26.10;15.23;;;;;;;23.38;85.88;95361.19;5015801;28;20233;-73
2023/07/18 03:18:36;;;;;;;27.77;15.50;;;;;;;23.42;85.63;95368.41;4992989;28;20242;-73
2023/07/18 03:21:01;;;;;;;20.45;15.02;;;;;;;23.27;86.46;95360.38;5002988;28;20244;-71
2023/07/18 03:23:27;;;;;;;22.92;15.52;;;;;;;23.20;87.10;95365.16;4988276;28;20257;-73
2023/07/18 03:25:52;;;;;;;21.17;15.77;;;;;;;23.20;87.10;95367.84;4974175;28;20910;-72
2023/07/18 03:28:19;;;;;;;20.17;14.98;;;;;;;23.29;86.58;95360.09;4995141;28;20750;-72
2023/07/18 03:30:45;;;;;;;20.73;15.38;;;;;;;23.24;86.85;95366.22;4996685;28;20225;-73
2023/07/18 03:33:11;;;;;;;22.23;15.32;;;;;;;23.35;86.30;95359.06;4997862;28;20300;-72
2023/07/18 03:35:36;;;;;;;20.15;14.90;;;;;;;23.45;85.91;95369.75;4983602;28;20457;-72
2023/07/18 03:38:02;;;;;;;22.95;15.32;;;;;;;23.44;86.15;95368.94;4993681;28;20231;-73
2023/07/18 03:40:28;;;;;;;21.40;14.50;;;;;;;23.32;86.77;95371.06;5009810;28;20253;-71
2023/07/18 03:43:02;;;;;;;21.55;15.30;;;;;;;23.34;86.82;95382.25;5011374;28;20234;-73
2023/07/18 03:45:28;;;;;;;23.27;15.52;;;;;;;23.41;86.25;95384.69;5011783;28;21281;-73
2023/07/18 03:47:54;;;;;;;25.55;15.75;;;;;;;23.50;86.15;95388.41;5015544;28;20225;-74
2023/07/18 03:50:20;;;;;;;21.42;15.27;;;;;;;23.38;86.60;95398.59;5016077;28;20230;-72
2023/07/18 03:52:45;;;;;;;22.35;15.93;;;;;;;23.56;85.57;95400.72;5013153;28;20227;-72
2023/07/18 03:55:11;;;;;;;22.90;15.88;;;;;;;23.64;85.17;95405.53;5027423;28;20238;-73
2023/07/18 03:57:36;;;;;;;26.73;15.43;;;;;;;23.69;85.18;95404.72;4991424;28;20239;-72
2023/07/18 04:00:12;;;;;;;23.63;16.02;;;;;;;23.74;85.52;95418.09;4987935;28;20679;-72
2023/07/18 04:02:39;;;;;;;22.05;15.55;;;;;;;23.77;85.02;95413.00;5012289;28;20226;-73
2023/07/18 04:05:05;;;;;;;25.13;16.70;;;;;;;23.72;85.22;95418.34;4996971;28;20230;-72
2023/07/18 04:07:32;;;;;;;23.02;15.75;;;;;;;23.73;85.07;95413.81;5013047;28;20234;-72
2023/07/18 04:09:57;;;;;;;28.13;16.55;;;;;;;23.74;84.98;95416.19;4992172;28;20237;-72
2023/07/18 04:12:23;;;;;;;23.92;16.42;;;;;;;23.78;85.30;95406.59;5013898;28;20226;-72
2023/07/18 04:14:51;;;;;;;22.27;15.95;;;;;;;23.87;85.17;95410.31;4992144;28;20845;-72
2023/07/18 04:17:17;;;;;;;26.33;16.58;;;;;;;23.87;85.24;95406.84;4989462;28;20278;-72
2023/07/18 04:19:42;;;;;;;24.48;17.15;;;;;;;23.97;84.21;95410.31;5029560;28;20750;-71
2023/07/18 04:22:08;;;;;;;24.65;17.33;;;;;;;24.03;84.13;95411.88;5009311;28;20636;-73
2023/07/18 04:24:34;;;;;;;28.30;17.77;;;;;;;23.72;86.10;95407.66;5016938;28;20250;-73
2023/07/18 04:26:59;;;;;;;24.58;17.58;;;;;;;23.94;84.91;95408.16;4993628;28;20250;-73
2023/07/18 04:29:28;;;;;;;29.10;17.92;;;;;;;23.79;85.44;95402.03;5008617;28;20231;-80
2023/07/18 04:31:53;;;;;;;27.42;17.48;;;;;;;23.75;86.22;95395.63;4988680;28;20230;-79
2023/07/18 04:34:19;;;;;;;25.35;17.45;;;;;;;23.78;85.80;95398.56;4980064;28;20711;-79
2023/07/18 04:36:45;;;;;;;25.17;17.15;;;;;;;23.86;85.93;95398.00;5013767;28;20222;-82
2023/07/18 04:39:10;;;;;;;23.45;17.17;;;;;;;23.99;85.41;95402.00;4978170;28;20249;-81
2023/07/18 04:41:36;;;;;;;23.90;17.20;;;;;;;23.87;85.69;95401.50;5009037;28;20249;-82
2023/07/18 04:44:02;;;;;;;29.70;17.52;;;;;;;23.88;85.82;95397.75;5030027;28;20222;-82
2023/07/18 04:46:27;;;;;;;25.88;17.98;;;;;;;24.09;85.22;95394.78;5013443;28;20237;-81
2023/07/18 04:48:53;;;;;;;25.73;17.63;;;;;;;24.17;83.76;95390.72;5002038;28;20234;-81
2023/07/18 04:51:22;;;;;;;22.10;17.02;;;;;;;24.30;83.72;95384.00;5003858;28;20230;-80
2023/07/18 04:53:47;;;;;;;27.63;17.77;;;;;;;24.42;83.40;95382.63;4996179;28;20741;-73
2023/07/18 04:56:13;;;;;;;28.30;17.60;;;;;;;24.52;82.39;95381.78;5010003;28;20235;-72
2023/07/18 04:58:38;;;;;;;25.02;17.23;;;;;;;24.51;82.81;95382.84;4996018;28;20723;-73
2023/07/18 05:01:04;;;;;;;25.10;17.15;;;;;;;24.56;80.98;95380.13;4990068;28;20238;-81
2023/07/18 05:03:29;;;;;;;30.85;18.45;;;;;;;24.63;80.30;95380.63;5011399;28;20329;-80
2023/07/18 05:05:55;;;;;;;25.30;17.35;;;;;;;24.72;81.18;95384.34;5011721;28;20226;-81
2023/07/18 05:08:21;;;;;;;26.38;17.75;;;;;;;24.70;80.45;95384.63;5023877;28;20323;-80
2023/07/18 05:10:47;;;;;;;26.23;16.45;;;;;;;24.77;81.25;95376.31;5009356;28;20696;-82
2023/07/18 05:13:12;;;;;;;24.13;16.63;;;;;;;25.03;80.08;95388.47;5015637;28;21004;-81
2023/07/18 05:15:38;;;;;;;25.48;16.98;;;;;;;25.49;76.86;95382.78;5011261;28;20233;-81
2023/07/18 05:18:03;;;;;;;28.55;16.73;;;;;;;26.58;72.05;95385.41;5001148;28;20235;-80
2023/07/18 05:20:29;;;;;;;26.27;18.05;;;;;;;26.45;71.76;95391.47;5038224;28;20238;-76
2023/07/18 05:22:54;;;;;;;25.98;17.05;;;;;;;25.83;74.38;95383.56;5003946;28;20226;-81
2023/07/18 05:25:20;;;;;;;26.08;17.30;;;;;;;25.65;76.18;95389.63;5006621;28;20244;-80
2023/07/18 05:27:45;;;;;;;24.77;16.40;;;;;;;25.62;77.89;95387.50;5025063;28;20237;-80
2023/07/18 05:30:17;;;;;;;24.52;16.45;;;;;;;25.50;78.55;95387.06;5004824;28;20234;-80
2023/07/18 05:32:43;;;;;;;26.10;17.42;;;;;;;25.69;76.76;95385.31;5015226;28;20234;-82
2023/07/18 05:35:13;;;;;;;25.75;18.00;;;;;;;25.71;75.74;95388.50;4975449;28;20848;-81
2023/07/18 05:37:45;;;;;;;23.58;16.98;;;;;;;25.64;76.68;95390.72;5014313;28;20727;-81
2023/07/18 05:40:16;;;;;;;27.52;17.13;;;;;;;25.82;75.17;95388.13;5010753;28;20231;-81
2023/07/18 05:42:42;;;;;;;24.83;16.67;;;;;;;26.42;72.49;95404.66;5007829;28;20304;-81
2023/07/18 05:45:08;;;;;;;28.38;16.88;;;;;;;26.02;74.09;95401.34;5014825;28;20226;-82
2023/07/18 05:47:34;;;;;;;25.92;16.95;;;;;;;25.89;74.14;95395.81;4997172;28;20482;-80
2023/07/18 05:50:00;;;;;;;24.08;16.90;;;;;;;25.79;74.59;95395.94;5022901;28;20325;-81
2023/07/18 05:52:26;;;;;;;26.50;17.30;;;;;;;25.69;74.61;95387.97;5015573;28;20246;-80
2023/07/18 05:54:52;;;;;;;34.05;18.67;;;;;;;25.79;75.65;95395.94;4996059;28;20222;-80
2023/07/18 05:57:17;;;;;;;30.50;18.73;;;;;;;25.85;76.34;95397.47;5032410;28;20861;-81
2023/07/18 05:59:43;;;;;;;32.70;19.15;;;;;;;25.75;77.12;95393.00;4997961;28;20237;-82
2023/07/18 06:02:08;;;;;;;34.15;20.30;;;;;;;25.63;78.03;95389.09;5010687;28;20254;-81
2023/07/18 06:04:36;;;;;;;35.28;19.08;;;;;;;25.76;77.55;95386.56;5023914;28;20230;-80
2023/07/18 06:07:01;;;;;;;33.60;19.95;;;;;;;25.59;77.73;95390.75;5008325;28;20318;-80
2023/07/18 06:09:27;;;;;;;35.25;20.42;;;;;;;25.66;76.93;95383.97;5025056;28;20380;-81
2023/07/18 06:11:53;;;;;;;36.50;20.58;;;;;;;25.87;76.62;95385.38;5013237;28;20929;-81
2023/07/18 06:14:18;;;;;;;30.60;19.35;;;;;;;25.99;76.80;95387.66;5013995;28;20313;-80
2023/07/18 06:16:45;;;;;;;32.55;19.10;;;;;;;25.89;77.08;95387.78;5012824;28;20234;-73
2023/07/18 06:19:12;;;;;;;34.35;18.83;;;;;;;26.01;76.92;95390.88;5019164;28;20229;-73
2023/07/18 06:21:37;;;;;;;36.80;20.52;;;;;;;26.21;75.54;95388.00;5035120;28;20860;-73
2023/07/18 06:24:03;;;;;;;31.15;19.77;;;;;;;26.26;75.74;95393.31;5029516;28;20232;-71
2023/07/18 06:26:28;;;;;;;36.25;20.45;;;;;;;26.04;75.00;95390.31;5012483;28;20252;-72
2023/07/18 06:28:57;;;;;;;35.88;20.70;;;;;;;26.08;76.31;95394.81;5030960;28;20622;-74
2023/07/18 06:31:23;;;;;;;33.17;20.10;;;;;;;26.20;75.36;95394.44;5034139;28;20251;-81
2023/07/18 06:33:48;;;;;;;30.55;20.67;;;;;;;26.23;74.21;95393.88;5033892;28;20236;-80
2023/07/18 06:36:15;;;;;;;32.45;20.35;;;;;;;26.32;74.12;95391.38;5037145;28;20237;-80
2023/07/18 06:38:40;;;;;;;35.17;20.67;;;;;;;26.25;74.68;95394.41;5036638;28;20225;-80
2023/07/18 06:41:06;;;;;;;33.33;20.63;;;;;;;26.31;74.93;95397.81;5018753;28;20231;-80
2023/07/18 06:43:32;;;;;;;36.35;21.35;;;;;;;26.28;74.50;95398.38;5038646;28;20653;-80
2023/07/18 06:45:58;;;;;;;30.90;20.20;;;;;;;26.49;74.38;95397.06;5052158;28;20240;-80
2023/07/18 06:48:24;;;;;;;32.00;19.50;;;;;;;26.59;72.69;95402.31;5049519;28;20241;-81
2023/07/18 06:50:51;;;;;;;32.85;19.48;;;;;;;26.53;72.30;95400.78;5037612;28;20225;-77
2023/07/18 06:53:21;;;;;;;30.92;18.90;;;;;;;26.69;73.46;95397.63;5036333;28;20229;-80
2023/07/18 06:55:48;;;;;;;39.05;18.95;;;;;;;26.81;72.80;95404.47;5051581;28;20229;-81
2023/07/18 06:58:14;;;;;;;35.38;18.95;;;;;;;26.74;72.12;95394.88;5038250;28;20263;-79
2023/07/18 07:00:40;;;;;;;31.38;18.38;;;;;;;26.78;72.58;95397.78;5033446;28;20229;-81
2023/07/18 07:03:06;;;;;;;30.85;18.15;;;;;;;26.82;72.72;95395.34;5055942;28;20301;-82
2023/07/18 07:05:38;;;;;;;32.78;18.08;;;;;;;26.95;72.01;95392.72;5014748;28;20279;-81
2023/07/18 07:08:09;;;;;;;35.53;18.98;;;;;;;27.10;72.00;95397.09;5057973;28;20315;-82
2023/07/18 07:10:40;;;;;;;25.40;17.27;;;;;;;27.13;72.45;95401.88;5038525;28;20234;-80
2023/07/18 07:13:12;;;;;;;28.90;18.33;;;;;;;27.18;71.76;95402.59;5018400;28;20907;-81
2023/07/18 07:15:38;;;;;;;30.83;19.23;;;;;;;27.23;71.54;95388.28;5054074;28;20228;-80
2023/07/18 07:18:04;;;;;;;31.45;18.40;;;;;;;27.32;70.64;95394.59;5037834;28;20224;-81
2023/07/18 07:20:32;;;;;;;27.00;17.85;;;;;;;27.48;71.70;95396.00;5039396;28;20232;-79
2023/07/18 07:22:58;;;;;;;33.53;18.85;;;;;;;27.47;70.60;95397.06;5042379;28;20769;-81
2023/07/18 07:25:28;;;;;;;26.73;17.67;;;;;;;27.57;70.81;95396.09;5043922;28;20228;-78
2023/07/18 07:27:54;;;;;;;30.23;18.40;;;;;;;27.71;69.73;95394.25;5042037;28;20312;-81
2023/07/18 07:30:20;;;;;;;25.80;18.15;;;;;;;27.70;69.78;95390.78;5054341;28;20309;-81
2023/07/18 07:32:47;;;;;;;24.42;18.00;;;;;;;27.73;69.00;95384.78;5054271;28;20229;-81
2023/07/18 07:35:13;;;;;;;28.13;18.48;;;;;;;27.66;68.41;95387.06;5033458;28;20320;-73
2023/07/18 07:37:40;;;;;;;28.10;18.70;;;;;;;27.82;69.11;95382.25;5031888;28;20304;-73
2023/07/18 07:40:09;;;;;;;26.33;18.30;;;;;;;27.87;68.60;95388.31;5051178;28;20232;-73
2023/07/18 07:42:36;;;;;;;29.92;19.33;;;;;;;28.01;68.31;95383.00;5023410;28;20723;-74
2023/07/18 07:45:01;;;;;;;24.40;17.67;;;;;;;28.16;68.81;95385.38;5035093;28;20233;-72
2023/07/18 07:47:27;;;;;;;28.13;18.58;;;;;;;28.23;69.05;95382.31;5031848;28;20297;-72
2023/07/18 07:49:52;;;;;;;29.65;18.90;;;;;;;28.32;67.90;95377.81;5037920;28;20239;-73
2023/07/18 07:52:18;;;;;;;29.88;19.30;;;;;;;28.37;67.29;95383.13;5055257;28;20298;-73
2023/07/18 07:54:44;;;;;;;27.63;18.80;;;;;;;28.43;67.70;95393.47;5033049;28;20293;-72
2023/07/18 07:57:10;;;;;;;28.38;19.52;;;;;;;28.52;66.93;95385.47;5035621;28;20233;-73
2023/07/18 07:59:36;;;;;;;29.15;19.13;;;;;;;28.63;66.20;95389.63;5053423;28;20237;-73
2023/07/18 08:02:03;;;;;;;31.48;20.35;;;;;;;28.55;66.78;95380.31;5041119;28;20323;-72
2023/07/18 08:04:28;;;;;;;28.88;19.30;;;;;;;28.57;68.37;95388.88;5041395;28;20240;-74
2023/07/18 08:06:55;;;;;;;28.40;19.67;;;;;;;28.68;67.51;95378.72;5024600;28;20609;-87
2023/07/18 08:09:22;;;;;;;31.23;19.33;;;;;;;28.78;64.97;95381.19;5014922;28;20237;-81
2023/07/18 08:11:48;;;;;;;24.00;17.95;;;;;;;28.93;66.52;95380.84;5054436;28;20234;-82
2023/07/18 08:14:13;;;;;;;26.40;17.95;;;;;;;29.03;65.58;95374.44;5035975;28;20287;-81
2023/07/18 08:16:39;;;;;;;25.55;18.05;;;;;;;29.15;64.77;95377.41;5033759;28;20221;-78
2023/07/18 08:19:05;;;;;;;23.67;17.25;;;;;;;29.27;63.30;95383.09;5035961;28;20233;-83
2023/07/18 08:21:30;;;;;;;24.83;17.92;;;;;;;29.23;63.53;95374.03;5021553;28;21219;-82
2023/07/18 08:23:56;;;;;;;24.50;18.30;;;;;;;29.26;63.59;95376.09;5056243;28;20236;-81
2023/07/18 08:26:21;;;;;;;24.73;17.55;;;;;;;29.33;64.34;95377.25;5035868;28;20240;-79
2023/07/18 08:28:47;;;;;;;25.92;17.05;;;;;;;29.47;63.15;95369.13;5060449;28;20925;-82
2023/07/18 08:31:12;;;;;;;24.17;17.73;;;;;;;29.56;63.06;95382.66;5048743;28;20228;-81
2023/07/18 08:33:38;;;;;;;25.65;18.00;;;;;;;29.68;62.41;95382.91;5025383;28;20334;-81
2023/07/18 08:36:03;;;;;;;26.88;18.90;;;;;;;29.87;61.88;95378.94;5068899;28;20221;-81
2023/07/18 08:38:29;;;;;;;28.67;17.65;;;;;;;29.88;62.27;95380.50;5042635;28;20259;-80
2023/07/18 08:40:58;;;;;;;24.80;17.92;;;;;;;30.02;62.24;95383.91;5051776;28;20253;-83
2023/07/18 08:43:24;;;;;;;28.27;20.38;;;;;;;30.18;59.94;95380.81;5036233;28;20233;-80
2023/07/18 08:45:49;;;;;;;27.02;20.67;;;;;;;30.22;59.82;95379.88;5037610;28;20225;-83
2023/07/18 08:48:15;;;;;;;29.17;18.83;;;;;;;30.16;61.02;95374.94;5033448;28;20236;-83
2023/07/18 08:50:41;;;;;;;29.60;19.40;;;;;;;30.19;61.38;95368.91;5037744;28;20225;-85
2023/07/18 08:53:06;;;;;;;27.63;18.42;;;;;;;30.33;61.87;95367.69;5013745;28;20291;-82
2023/07/18 08:55:32;;;;;;;23.38;18.13;;;;;;;30.44;61.07;95373.63;5015003;28;20265;-81
2023/07/18 08:57:57;;;;;;;27.70;18.48;;;;;;;30.35;59.84;95373.59;5046997;28;20233;-82
2023/07/18 09:00:23;;;;;;;27.30;18.63;;;;;;;30.15;59.62;95368.72;5032594;28;20254;-80
2023/07/18 09:02:49;;;;;;;31.10;17.48;;;;;;;30.06;60.90;95378.69;5028204;28;20229;-79
2023/07/18 09:05:35;;;;;;;23.55;17.50;;;;;;;30.11;60.20;95372.34;5043060;28;20220;-82
2023/07/18 09:08:02;;;;;;;23.73;17.60;;;;;;;30.36;59.38;95377.09;5036324;28;20241;-80
2023/07/18 09:10:27;;;;;;;23.50;16.48;;;;;;;30.52;59.68;95372.88;5028130;28;20229;-80
2023/07/18 09:12:54;;;;;;;19.45;16.38;;;;;;;30.63;58.25;95374.97;5024942;28;20240;-81
2023/07/18 09:15:20;;;;;;;24.25;16.52;;;;;;;30.73;59.14;95367.66;5014412;28;20230;-83
2023/07/18 09:17:53;;;;;;;25.83;17.38;;;;;;;30.78;60.89;95362.09;5036226;28;20249;-74
2023/07/18 09:20:19;;;;;;;34.28;17.00;;;;;;;30.97;59.20;95374.25;5032358;28;20848;-73
2023/07/18 09:22:46;;;;;;;32.45;16.00;;;;;;;30.92;56.89;95362.78;5015967;28;20220;-74
2023/07/18 09:25:15;;;;;;;26.10;15.27;;;;;;;30.95;57.01;95357.56;5022677;28;20615;-73
2023/07/18 09:27:41;;;;;;;28.33;15.45;;;;;;;31.11;56.85;95355.16;5007323;28;20228;-73
2023/07/18 09:30:07;;;;;;;22.58;15.18;;;;;;;30.93;57.41;95356.28;5053695;28;20256;-75
2023/07/18 09:32:33;;;;;;;25.35;15.77;;;;;;;30.70;56.65;95360.16;5017121;28;20236;-73
2023/07/18 09:35:02;;;;;;;22.60;15.07;;;;;;;30.80;56.87;95359.88;5030439;28;20232;-73
2023/07/18 09:37:27;;;;;;;26.65;16.55;;;;;;;30.90;57.07;95362.31;5053966;28;20239;-83
2023/07/18 09:39:54;;;;;;;19.90;15.95;;;;;;;31.25;56.13;95362.00;5055135;28;20312;-77
2023/07/18 09:42:20;;;;;;;21.42;15.45;;;;;;;31.03;56.59;95355.94;5036900;28;20228;-83
2023/07/18 09:44:51;;;;;;;21.17;16.17;;;;;;;30.93;57.00;95353.56;5016219;28;20313;-81
2023/07/18 09:47:17;;;;;;;20.80;16.10;;;;;;;31.11;56.94;95358.66;5013856;28;20232;-81
2023/07/18 09:49:43;;;;;;;22.77;16.73;;;;;;;31.27;57.97;95356.25;5039059;28;20236;-82
2023/07/18 09:52:13;;;;;;;23.85;16.15;;;;;;;31.47;56.46;95352.94;5036181;28;20233;-81
2023/07/18 09:54:39;;;;;;;21.10;15.55;;;;;;;31.56;56.20;95347.50;5008066;28;20241;-79
2023/07/18 09:57:11;;;;;;;25.05;16.27;;;;;;;31.62;56.15;95344.31;5028028;28;20302;-78
2023/07/18 09:59:37;;;;;;;19.02;15.07;;;;;;;31.78;54.47;95345.41;5036110;28;20729;-84
2023/07/18 10:02:06;;;;;;;19.55;15.18;;;;;;;31.74;53.79;95333.59;5027012;28;20229;-83
2023/07/18 10:04:34;;;;;;;18.27;14.32;;;;;;;31.59;53.67;95336.03;5023657;28;20319;-82
2023/07/18 10:07:00;;;;;;;20.23;14.02;;;;;;;31.60;53.44;95340.34;5036119;28;20245;-82
2023/07/18 10:09:27;;;;;;;18.90;13.48;;;;;;;31.83;53.21;95331.69;5036935;28;20233;-82
2023/07/18 10:11:59;;;;;;;19.98;13.82;;;;;;;31.98;55.14;95326.88;5018499;28;20355;-83
2023/07/18 10:14:46;;;;;;;20.58;13.52;;;;;;;32.12;53.05;95330.19;5028422;28;20237;-79
2023/07/18 10:17:27;;;;;;;17.92;12.07;;;;;;;32.28;50.92;95326.59;5006001;28;20238;-83
2023/07/18 10:19:52;;;;;;;15.85;11.88;;;;;;;32.34;50.59;95327.19;4970741;28;20225;-82
2023/07/18 10:22:30;;;;;;;15.43;10.90;;;;;;;32.14;50.20;95341.47;5010262;28;20263;-83
2023/07/18 10:25:00;;;;;;;16.65;11.32;;;;;;;32.04;50.04;95331.00;4984276;28;20230;-82
2023/07/18 10:27:56;;;;;;;16.77;11.05;;;;;;;32.00;49.51;95330.88;5014262;28;20249;-80
2023/07/18 10:30:21;;;;;;;14.85;11.10;;;;;;;32.24;50.59;95341.94;5008635;28;20225;-79
2023/07/18 10:32:54;;;;;;;16.55;11.07;;;;;;;32.47;48.75;95342.44;4990469;28;20335;-82
2023/07/18 10:35:27;;;;;;;16.50;10.75;;;;;;;32.38;48.05;95337.06;5030585;28;20238;-80
2023/07/18 10:37:56;;;;;;;17.10;10.93;;;;;;;32.11;50.20;95328.56;4992759;28;20248;-84
2023/07/18 10:40:36;;;;;;;15.98;10.57;;;;;;;31.88;48.80;95334.19;5020150;28;20237;-86
2023/07/18 10:43:08;;;;;;;14.98;10.98;;;;;;;31.96;49.04;95335.28;5014247;28;20226;-82
2023/07/18 10:45:52;;;;;;;14.50;9.52;;;;;;;31.90;49.99;95342.81;5031014;28;20234;-84
2023/07/18 10:48:19;;;;;;;12.27;9.13;;;;;;;32.18;48.46;95337.00;5013495;28;20234;-80
2023/07/18 10:50:46;;;;;;;13.82;8.88;;;;;;;32.39;48.68;95332.41;5016554;28;20230;-79
2023/07/18 10:53:13;;;;;;;16.40;8.90;;;;;;;32.20;48.27;95330.13;4995518;28;20245;-74
2023/07/18 10:55:38;;;;;;;12.65;8.02;;;;;;;31.95;47.76;95334.53;4980479;28;20606;-73
2023/07/18 10:58:08;;;;;;;8.98;7.43;;;;;;;31.66;47.59;95331.72;4999941;28;20304;-73
2023/07/18 11:00:34;;;;;;;11.63;6.63;;;;;;;31.80;46.14;95337.75;4996077;28;20242;-80
2023/07/18 11:03:00;;;;;;;11.20;5.88;;;;;;;32.09;44.12;95342.47;5029498;28;20235;-80
2023/07/18 11:05:25;;;;;;;11.10;5.78;;;;;;;32.40;43.12;95339.44;5000448;28;20239;-80
2023/07/18 11:07:51;;;;;;;10.73;5.30;;;;;;;32.49;39.04;95338.28;5000648;28;20227;-71
2023/07/18 11:10:16;;;;;;;10.38;5.57;;;;;;;32.66;41.27;95340.13;5009878;28;20818;-73
2023/07/18 11:12:42;;;;;;;11.77;5.55;;;;;;;32.81;40.21;95350.41;4980956;28;20230;-73
2023/07/18 11:15:09;;;;;;;14.50;4.88;;;;;;;32.85;36.46;95335.03;4982710;28;20286;-73